Terminal Aerodrome Forecast
Issued by NWS St Louis, MO

Home | Current Version | Previous Version | Text Only | Print | Product List | Glossary On
Versions: 1 2 3 4 5 6 7 8 9 10 11 12 13 14 15 16 17 18 19 20 21 22 23 24
673
FTUS43 KLSX 241125
TAFSTL
TAF
KSTL 241125Z 2412/2518 19008KT P6SM BKN250
     FM241600 19013G21KT P6SM FEW250
     FM250100 21010KT P6SM BKN110
     FM250400 25008KT P6SM BKN200
     FM250600 30008KT P6SM SCT080=

USA.gov is the U.S. government's official web portal to all federal, state and local government web resources and services.